createdAt,value
2022-08-17T00:00:44.030Z,81.00
2022-08-17T00:03:11.047Z,81.20
2022-08-17T00:05:44.184Z,81.50
2022-08-17T00:08:13.111Z,81.40
2022-08-17T00:10:41.645Z,81.40
2022-08-17T00:13:15.278Z,81.60
2022-08-17T00:15:45.394Z,81.70
2022-08-17T00:18:58.369Z,81.70
2022-08-17T00:21:05.599Z,81.70
2022-08-17T00:23:47.684Z,81.70
2022-08-17T00:26:44.448Z,81.80
2022-08-17T00:29:09.031Z,82.00
2022-08-17T00:31:38.455Z,82.20
2022-08-17T00:34:08.861Z,82.20
2022-08-17T00:36:37.634Z,82.20
2022-08-17T00:39:06.425Z,82.20
2022-08-17T00:41:35.945Z,82.20
2022-08-17T00:44:09.876Z,82.20
2022-08-17T00:46:44.065Z,82.50
2022-08-17T00:49:14.031Z,82.60
2022-08-17T00:51:45.797Z,82.70
2022-08-17T00:54:19.905Z,82.90
2022-08-17T00:56:51.313Z,82.90
2022-08-17T00:59:24.323Z,82.90
2022-08-17T01:01:53.327Z,83.50
2022-08-17T01:04:23.511Z,83.30
2022-08-17T01:06:53.202Z,83.20
2022-08-17T01:09:22.521Z,83.20
2022-08-17T01:11:52.481Z,83.10
2022-08-17T01:14:23.170Z,83.20
2022-08-17T01:16:52.751Z,83.20
2022-08-17T01:19:24.067Z,83.20
2022-08-17T01:21:58.793Z,83.20
2022-08-17T01:24:29.809Z,83.20
2022-08-17T01:26:59.056Z,83.20
2022-08-17T01:29:30.873Z,83.20
2022-08-17T01:32:03.700Z,83.20
2022-08-17T01:34:43.395Z,83.20
2022-08-17T01:37:19.413Z,83.10
2022-08-17T01:39:51.588Z,83.20
2022-08-17T01:42:25.079Z,83.20
2022-08-17T01:44:58.997Z,83.20
2022-08-17T01:47:27.657Z,83.40
2022-08-17T01:50:00.129Z,83.30
2022-08-17T01:52:28.574Z,83.30
2022-08-17T01:54:58.633Z,83.20
2022-08-17T01:57:27.070Z,83.30
2022-08-17T01:59:55.635Z,83.30
2022-08-17T02:02:30.312Z,83.30
2022-08-17T02:05:00.595Z,83.30
2022-08-17T02:07:29.548Z,83.30
2022-08-17T02:09:59.581Z,83.30
2022-08-17T02:12:39.402Z,83.30
2022-08-17T02:15:13.667Z,83.40
2022-08-17T02:17:44.906Z,83.40
2022-08-17T02:20:13.297Z,83.40
2022-08-17T02:22:45.210Z,83.40
2022-08-17T02:25:19.165Z,83.60
2022-08-17T02:27:47.921Z,83.60
2022-08-17T02:31:01.081Z,83.60
2022-08-17T02:33:09.267Z,83.70
2022-08-17T02:35:38.425Z,83.80
2022-08-17T02:38:07.288Z,83.80
2022-08-17T02:40:40.633Z,83.90
2022-08-17T02:43:10.320Z,84.80
2022-08-17T02:45:38.904Z,84.10
2022-08-17T02:48:07.377Z,84.10
2022-08-17T02:50:36.333Z,84.10
2022-08-17T02:53:05.677Z,84.50
2022-08-17T02:55:41.392Z,84.60
2022-08-17T02:58:12.080Z,84.60
2022-08-17T03:00:46.398Z,84.60
2022-08-17T03:03:18.827Z,84.60
2022-08-17T03:05:48.255Z,84.60
2022-08-17T03:08:17.436Z,84.60
2022-08-17T03:10:48.429Z,84.60
2022-08-17T03:13:16.997Z,84.60
2022-08-17T03:15:47.187Z,84.70
2022-08-17T03:18:24.345Z,84.80
2022-08-17T03:20:54.595Z,84.80
2022-08-17T03:23:24.057Z,85.00
2022-08-17T03:25:56.390Z,85.20
2022-08-17T03:28:25.417Z,85.00
2022-08-17T03:30:54.003Z,85.20
2022-08-17T03:33:22.411Z,85.20
2022-08-17T03:35:51.219Z,85.20
2022-08-17T03:38:20.010Z,85.30
2022-08-17T03:40:59.131Z,85.40
2022-08-17T03:43:32.353Z,85.50
2022-08-17T03:46:34.203Z,85.60
2022-08-17T03:49:22.423Z,85.60
2022-08-17T03:52:08.118Z,85.80
2022-08-17T03:54:54.061Z,85.80
2022-08-17T03:57:22.560Z,85.90
2022-08-17T03:59:52.918Z,85.90
2022-08-17T04:02:25.489Z,86.10
2022-08-17T04:04:56.251Z,86.20
2022-08-17T04:07:27.600Z,88.00
2022-08-17T04:09:58.597Z,87.80
2022-08-17T04:12:30.836Z,87.80
2022-08-17T04:15:02.284Z,87.70
2022-08-17T04:17:30.971Z,87.70
2022-08-17T04:20:01.709Z,87.80
2022-08-17T04:22:34.476Z,87.90
2022-08-17T04:25:08.724Z,88.00
2022-08-17T04:27:37.534Z,88.30
2022-08-17T04:30:08.732Z,88.40
2022-08-17T04:32:59.471Z,88.50
2022-08-17T04:35:36.137Z,88.70
2022-08-17T04:38:04.609Z,88.70
2022-08-17T04:40:50.674Z,88.60
2022-08-17T04:43:21.650Z,88.40
2022-08-17T04:45:55.373Z,88.40
2022-08-17T04:48:34.715Z,88.40
2022-08-17T04:51:07.370Z,88.40
2022-08-17T04:53:35.953Z,88.30
2022-08-17T04:56:04.850Z,88.30
2022-08-17T04:58:34.217Z,88.30
2022-08-17T05:01:04.470Z,88.20
2022-08-17T05:03:33.273Z,88.10
2022-08-17T05:06:02.350Z,87.80
2022-08-17T05:08:30.928Z,87.70
2022-08-17T05:11:00.315Z,87.60
2022-08-17T05:13:30.435Z,87.80
2022-08-17T05:16:01.026Z,87.70
2022-08-17T05:18:31.812Z,87.70
2022-08-17T05:21:00.194Z,87.60
2022-08-17T05:23:41.842Z,87.40
2022-08-17T05:26:22.597Z,87.20
2022-08-17T05:28:57.272Z,87.20
2022-08-17T05:31:29.542Z,87.10
2022-08-17T05:33:59.500Z,87.00
2022-08-17T05:36:41.657Z,87.00
2022-08-17T05:39:16.954Z,87.10
2022-08-17T05:41:47.353Z,86.90
2022-08-17T05:44:15.809Z,86.90
2022-08-17T05:46:49.138Z,86.80
2022-08-17T05:49:23.296Z,86.80
2022-08-17T05:52:10.962Z,86.70
2022-08-17T05:54:52.918Z,86.70
2022-08-17T05:57:39.585Z,86.70
2022-08-17T06:00:19.337Z,86.70
2022-08-17T06:03:12.229Z,86.80
2022-08-17T06:06:01.433Z,86.70
2022-08-17T06:08:36.365Z,86.20
2022-08-17T06:11:23.673Z,85.80
2022-08-17T06:14:03.423Z,85.80
2022-08-17T06:16:36.799Z,85.80
2022-08-17T06:19:12.920Z,85.60
2022-08-17T06:21:45.595Z,85.50
2022-08-17T06:24:24.584Z,85.50
2022-08-17T06:26:55.277Z,85.50
2022-08-17T06:29:40.152Z,85.50
2022-08-17T06:32:12.760Z,85.30
2022-08-17T06:34:43.573Z,85.10
2022-08-17T06:37:25.990Z,84.70
2022-08-17T06:40:02.824Z,83.90
2022-08-17T06:43:00.875Z,83.60
2022-08-17T06:45:39.142Z,83.70
2022-08-17T06:48:24.852Z,83.10
2022-08-17T06:50:56.032Z,83.00
2022-08-17T06:53:29.567Z,82.90
2022-08-17T06:56:03.345Z,82.70
2022-08-17T06:58:33.449Z,82.60
2022-08-17T07:01:11.063Z,82.20
2022-08-17T07:03:46.682Z,81.90
2022-08-17T07:06:19.393Z,81.80
2022-08-17T07:08:55.105Z,81.30
2022-08-17T07:11:28.676Z,80.80
2022-08-17T07:14:06.953Z,80.00
2022-08-17T07:16:41.219Z,80.00
2022-08-17T07:19:10.834Z,79.80
2022-08-17T07:21:48.844Z,79.10
2022-08-17T07:24:35.815Z,78.90
2022-08-17T07:27:11.684Z,77.90
2022-08-17T07:29:48.034Z,77.30
2022-08-17T07:32:20.689Z,76.90
2022-08-17T07:35:18.007Z,76.50
2022-08-17T07:37:55.674Z,75.80
2022-08-17T07:40:30.967Z,74.20
2022-08-17T07:43:04.919Z,74.20
2022-08-17T07:45:52.785Z,73.70
2022-08-17T07:48:25.641Z,72.00
2022-08-17T07:50:54.374Z,71.50
2022-08-17T07:53:27.519Z,71.10
2022-08-17T07:55:57.478Z,71.40
2022-08-17T07:58:26.588Z,71.70
2022-08-17T08:01:10.057Z,71.60
2022-08-17T08:03:43.847Z,71.00
2022-08-17T08:06:22.027Z,71.10
2022-08-17T08:08:55.194Z,71.20
2022-08-17T08:11:41.271Z,70.90
2022-08-17T08:14:28.504Z,71.00
2022-08-17T08:17:00.358Z,70.10
2022-08-17T08:19:30.289Z,69.40
2022-08-17T08:22:10.107Z,69.30
2022-08-17T08:24:53.530Z,68.90
2022-08-17T08:27:34.293Z,67.70
2022-08-17T08:30:07.471Z,67.40
2022-08-17T08:33:10.132Z,67.70
2022-08-17T08:35:45.541Z,67.70
2022-08-17T08:38:23.652Z,66.50
2022-08-17T08:41:07.581Z,64.70
2022-08-17T08:43:47.390Z,64.90
2022-08-17T08:46:30.750Z,64.40
2022-08-17T08:49:17.839Z,65.00
2022-08-17T08:51:55.538Z,65.30
2022-08-17T08:54:37.627Z,64.90
2022-08-17T08:57:30.861Z,65.00
2022-08-17T09:00:13.392Z,64.70
2022-08-17T09:03:12.250Z,64.30
2022-08-17T09:06:28.725Z,63.80
2022-08-17T09:09:10.651Z,63.40
2022-08-17T09:12:01.766Z,62.60
2022-08-17T09:14:45.106Z,62.30
2022-08-17T09:17:21.807Z,62.50
2022-08-17T09:19:56.095Z,62.70
2022-08-17T09:22:31.876Z,61.80
2022-08-17T09:25:08.036Z,61.80
2022-08-17T09:27:49.372Z,61.40
2022-08-17T09:30:19.517Z,60.60
2022-08-17T09:32:55.449Z,59.30
2022-08-17T09:35:32.794Z,58.80
2022-08-17T09:38:16.418Z,58.70
2022-08-17T09:40:52.781Z,58.40
2022-08-17T09:43:32.815Z,58.20
2022-08-17T09:46:11.379Z,58.10
2022-08-17T09:48:46.803Z,58.40
2022-08-17T09:51:22.688Z,59.00
2022-08-17T09:53:52.646Z,59.30
2022-08-17T09:56:36.637Z,57.40
2022-08-17T09:59:27.527Z,57.00
2022-08-17T10:02:18.565Z,57.50
2022-08-17T10:04:56.038Z,58.10
2022-08-17T10:07:30.953Z,58.20
2022-08-17T10:10:04.288Z,58.20
2022-08-17T10:12:40.242Z,58.10
2022-08-17T10:15:25.313Z,57.30
2022-08-17T10:18:14.976Z,57.70
2022-08-17T10:20:51.273Z,56.90
2022-08-17T10:23:44.925Z,57.50
2022-08-17T10:26:18.198Z,57.50
2022-08-17T10:28:51.284Z,57.10
2022-08-17T10:31:40.044Z,55.50
2022-08-17T10:34:43.290Z,55.50
2022-08-17T10:37:36.567Z,55.20
2022-08-17T10:40:20.415Z,55.30
2022-08-17T10:42:52.602Z,55.30
2022-08-17T10:45:27.135Z,55.50
2022-08-17T10:48:05.311Z,55.40
2022-08-17T10:50:48.274Z,55.20
2022-08-17T10:53:50.329Z,55.30
2022-08-17T10:56:45.418Z,54.10
2022-08-17T10:59:51.642Z,54.80
2022-08-17T11:02:27.563Z,54.20
2022-08-17T11:05:10.208Z,54.60
2022-08-17T11:08:05.529Z,54.60
2022-08-17T11:10:59.574Z,54.30
2022-08-17T11:13:42.725Z,53.80
2022-08-17T11:16:34.648Z,53.60
2022-08-17T11:19:39.900Z,53.30
2022-08-17T11:22:36.776Z,52.60
2022-08-17T11:25:16.364Z,52.60
2022-08-17T11:27:53.954Z,52.40
2022-08-17T11:30:47.144Z,52.30
2022-08-17T11:33:55.197Z,51.20
2022-08-17T11:36:47.183Z,50.00
2022-08-17T11:39:37.089Z,50.40
2022-08-17T11:42:12.726Z,50.30
2022-08-17T11:44:52.410Z,49.70
2022-08-17T11:48:09.428Z,49.80
2022-08-17T11:51:07.156Z,50.20
2022-08-17T11:54:21.577Z,49.90
2022-08-17T11:56:50.233Z,49.80
2022-08-17T11:59:55.675Z,49.80
2022-08-17T12:02:35.281Z,48.90
2022-08-17T12:05:32.669Z,49.30
2022-08-17T12:08:19.965Z,49.40
2022-08-17T12:11:06.182Z,47.20
2022-08-17T12:13:43.520Z,47.60
2022-08-17T12:16:16.459Z,47.90
2022-08-17T12:18:54.403Z,48.00
2022-08-17T12:21:48.813Z,48.20
2022-08-17T12:24:40.623Z,48.40
2022-08-17T12:27:11.429Z,48.50
2022-08-17T12:29:45.615Z,48.30
2022-08-17T12:32:20.307Z,47.90
2022-08-17T12:34:52.356Z,46.00
2022-08-17T12:37:24.712Z,46.20
2022-08-17T12:39:56.823Z,45.90
2022-08-17T12:42:33.163Z,46.20
2022-08-17T12:45:02.043Z,46.70
2022-08-17T12:47:32.005Z,46.70
2022-08-17T12:50:29.610Z,45.80
2022-08-17T12:53:02.272Z,45.50
2022-08-17T12:55:37.231Z,45.70
2022-08-17T12:58:08.089Z,46.40
2022-08-17T13:00:41.530Z,46.30
2022-08-17T13:03:22.130Z,46.70
2022-08-17T13:06:01.058Z,46.00
2022-08-17T13:08:32.635Z,45.70
2022-08-17T13:11:03.850Z,45.70
2022-08-17T13:13:34.150Z,45.30
2022-08-17T13:16:05.269Z,44.90
2022-08-17T13:18:43.010Z,44.90
2022-08-17T13:21:28.730Z,45.20
2022-08-17T13:24:02.602Z,45.50
2022-08-17T13:26:34.418Z,45.80
2022-08-17T13:29:06.737Z,46.00
2022-08-17T13:31:52.344Z,45.90
2022-08-17T13:34:49.610Z,45.40
2022-08-17T13:37:34.011Z,45.60
2022-08-17T13:40:26.163Z,45.80
2022-08-17T13:42:56.473Z,45.60
2022-08-17T13:45:50.281Z,45.70
2022-08-17T13:48:29.456Z,45.80
2022-08-17T13:51:18.466Z,46.80
2022-08-17T13:53:56.320Z,48.70
2022-08-17T13:56:40.001Z,49.90
2022-08-17T13:59:12.411Z,50.60
2022-08-17T14:01:43.801Z,51.10
2022-08-17T14:04:14.048Z,50.80
2022-08-17T14:06:53.241Z,50.90
2022-08-17T14:09:27.170Z,51.00
2022-08-17T14:11:58.690Z,51.20
2022-08-17T14:14:27.852Z,51.30
2022-08-17T14:16:57.684Z,51.70
2022-08-17T14:19:27.993Z,52.60
2022-08-17T14:21:59.756Z,51.90
2022-08-17T14:24:32.652Z,52.00
2022-08-17T14:27:03.595Z,52.10
2022-08-17T14:29:34.382Z,52.20
2022-08-17T14:32:06.673Z,52.10
2022-08-17T14:34:35.225Z,52.10
2022-08-17T14:37:03.683Z,51.70
2022-08-17T14:39:33.972Z,52.00
2022-08-17T14:42:02.882Z,51.20
2022-08-17T14:44:31.394Z,51.10
2022-08-17T14:46:59.779Z,51.30
2022-08-17T14:49:28.195Z,51.20
2022-08-17T14:51:56.667Z,51.10
2022-08-17T14:54:33.147Z,51.20
2022-08-17T14:57:25.223Z,51.10
2022-08-17T14:59:55.998Z,51.20
2022-08-17T15:02:29.656Z,51.30
2022-08-17T15:05:01.977Z,50.60
2022-08-17T15:07:31.367Z,49.70
2022-08-17T15:10:01.603Z,50.00
2022-08-17T15:12:34.466Z,50.40
2022-08-17T15:15:04.590Z,50.70
2022-08-17T15:17:44.662Z,50.50
2022-08-17T15:20:16.837Z,49.90
2022-08-17T15:22:46.566Z,49.50
2022-08-17T15:25:15.848Z,49.50
2022-08-17T15:27:45.642Z,49.40
2022-08-17T15:30:15.495Z,49.10
2022-08-17T15:32:50.633Z,48.80
2022-08-17T15:35:28.315Z,48.60
2022-08-17T15:38:04.690Z,48.30
2022-08-17T15:40:37.665Z,47.80
2022-08-17T15:43:08.442Z,47.80
2022-08-17T15:45:37.677Z,47.90
2022-08-17T15:48:11.800Z,47.70
2022-08-17T15:50:40.213Z,47.80
2022-08-17T15:53:08.857Z,47.90
2022-08-17T15:55:38.690Z,48.20
2022-08-17T15:58:08.471Z,48.40
2022-08-17T16:00:51.574Z,48.50
2022-08-17T16:03:58.318Z,49.30
2022-08-17T16:06:17.972Z,48.80
2022-08-17T16:08:47.632Z,48.90
2022-08-17T16:11:18.751Z,48.90
2022-08-17T16:13:54.799Z,49.20
2022-08-17T16:16:24.987Z,49.40
2022-08-17T16:18:57.023Z,49.60
2022-08-17T16:21:29.737Z,49.90
2022-08-17T16:24:02.841Z,50.20
2022-08-17T16:26:33.768Z,50.30
2022-08-17T16:29:06.367Z,50.50
2022-08-17T16:31:37.939Z,50.70
2022-08-17T16:34:16.970Z,51.00
2022-08-17T16:36:56.017Z,51.30
2022-08-17T16:39:27.411Z,51.50
2022-08-17T16:41:57.289Z,51.70
2022-08-17T16:44:30.986Z,52.00
2022-08-17T16:47:00.148Z,52.20
2022-08-17T16:49:37.060Z,52.30
2022-08-17T16:52:10.990Z,52.60
2022-08-17T16:54:44.014Z,52.80
2022-08-17T16:57:13.297Z,52.90
2022-08-17T16:59:47.843Z,53.10
2022-08-17T17:02:25.037Z,53.20
2022-08-17T17:04:57.357Z,53.40
2022-08-17T17:07:43.933Z,53.50
2022-08-17T17:10:16.829Z,53.60
2022-08-17T17:13:01.965Z,53.80
2022-08-17T17:15:47.698Z,53.90
2022-08-17T17:18:17.905Z,54.20
2022-08-17T17:20:54.040Z,54.30
2022-08-17T17:23:38.552Z,54.60
2022-08-17T17:26:19.554Z,54.90
2022-08-17T17:29:00.296Z,55.10
2022-08-17T17:31:38.374Z,55.20
2022-08-17T17:34:11.402Z,55.40
2022-08-17T17:36:43.030Z,55.60
2022-08-17T17:39:15.108Z,56.10
2022-08-17T17:41:48.515Z,56.40
2022-08-17T17:44:21.308Z,56.60
2022-08-17T17:47:07.694Z,56.80
2022-08-17T17:49:40.005Z,57.20
2022-08-17T17:52:19.401Z,57.50
2022-08-17T17:55:08.790Z,57.80
2022-08-17T17:57:50.324Z,58.10
2022-08-17T18:00:24.825Z,58.30
2022-08-17T18:03:15.268Z,58.40
2022-08-17T18:05:53.223Z,59.40
2022-08-17T18:08:35.428Z,59.30
2022-08-17T18:11:15.111Z,59.30
2022-08-17T18:14:05.885Z,59.30
2022-08-17T18:16:36.029Z,59.40
2022-08-17T18:19:06.064Z,59.40
2022-08-17T18:21:38.861Z,59.50
2022-08-17T18:24:10.677Z,59.70
2022-08-17T18:26:49.360Z,59.80
2022-08-17T18:29:44.594Z,59.90
2022-08-17T18:32:33.244Z,60.30
2022-08-17T18:35:19.284Z,60.50
2022-08-17T18:37:50.119Z,60.80
2022-08-17T18:40:34.834Z,60.90
2022-08-17T18:43:11.320Z,61.10
2022-08-17T18:45:43.906Z,61.10
2022-08-17T18:48:33.120Z,60.90
2022-08-17T18:51:26.347Z,60.90
2022-08-17T18:54:22.567Z,61.00
2022-08-17T18:56:56.276Z,61.30
2022-08-17T18:59:33.782Z,61.20
2022-08-17T19:02:27.380Z,61.30
2022-08-17T19:05:13.814Z,61.30
2022-08-17T19:07:45.291Z,61.30
2022-08-17T19:10:22.677Z,61.20
2022-08-17T19:13:00.140Z,61.30
2022-08-17T19:15:40.449Z,61.50
2022-08-17T19:18:15.953Z,61.60
2022-08-17T19:20:50.915Z,61.70
2022-08-17T19:23:25.271Z,61.70
2022-08-17T19:25:58.445Z,61.90
2022-08-17T19:28:30.841Z,61.90
2022-08-17T19:31:03.584Z,62.00
2022-08-17T19:33:32.780Z,62.30
2022-08-17T19:36:07.265Z,62.40
2022-08-17T19:38:45.135Z,62.60
2022-08-17T19:41:21.563Z,62.80
2022-08-17T19:44:07.144Z,63.00
2022-08-17T19:46:48.625Z,63.30
2022-08-17T19:49:33.233Z,63.90
2022-08-17T19:52:20.759Z,64.20
2022-08-17T19:54:58.949Z,64.60
2022-08-17T19:57:42.587Z,64.90
2022-08-17T20:00:13.418Z,65.00
2022-08-17T20:02:49.028Z,65.20
2022-08-17T20:05:21.530Z,65.30
2022-08-17T20:07:55.979Z,65.20
2022-08-17T20:10:48.090Z,65.50
2022-08-17T20:13:33.249Z,65.60
2022-08-17T20:16:04.566Z,65.60
2022-08-17T20:18:41.695Z,65.70
2022-08-17T20:21:20.387Z,65.80
2022-08-17T20:23:57.651Z,65.60
2022-08-17T20:26:29.809Z,65.50
2022-08-17T20:29:31.953Z,65.40
2022-08-17T20:32:26.846Z,65.20
2022-08-17T20:35:26.071Z,65.00
2022-08-17T20:37:59.853Z,64.90
2022-08-17T20:40:36.482Z,64.80
2022-08-17T20:43:40.240Z,64.80
2022-08-17T20:46:19.141Z,64.80
2022-08-17T20:48:50.737Z,64.80
2022-08-17T20:51:27.312Z,64.70
2022-08-17T20:54:42.514Z,64.80
2022-08-17T20:57:32.607Z,64.90
2022-08-17T21:00:18.311Z,65.00
2022-08-17T21:02:52.602Z,65.20
2022-08-17T21:05:34.364Z,65.20
2022-08-17T21:08:14.356Z,65.40
2022-08-17T21:10:45.864Z,65.80
2022-08-17T21:13:49.153Z,66.30
2022-08-17T21:16:32.428Z,66.50
2022-08-17T21:19:16.963Z,66.80
2022-08-17T21:21:58.280Z,67.10
2022-08-17T21:24:37.888Z,67.20
2022-08-17T21:27:23.231Z,67.30
2022-08-17T21:30:12.457Z,67.30
2022-08-17T21:32:44.457Z,67.40
2022-08-17T21:35:47.782Z,67.40
2022-08-17T21:38:19.441Z,67.80
2022-08-17T21:40:50.737Z,67.80
2022-08-17T21:43:25.088Z,68.10
2022-08-17T21:46:01.009Z,68.30
2022-08-17T21:48:32.611Z,68.40
2022-08-17T21:51:09.084Z,68.40
2022-08-17T21:53:44.269Z,68.60
2022-08-17T21:56:14.749Z,68.70
2022-08-17T21:58:48.547Z,68.80
2022-08-17T22:01:28.178Z,69.00
2022-08-17T22:04:05.173Z,69.10
2022-08-17T22:06:39.164Z,69.00
2022-08-17T22:09:21.136Z,69.10
2022-08-17T22:12:05.802Z,69.40
2022-08-17T22:14:53.044Z,69.70
2022-08-17T22:17:26.125Z,69.80
2022-08-17T22:19:59.459Z,69.80
2022-08-17T22:22:34.819Z,69.80
2022-08-17T22:25:06.734Z,70.10
2022-08-17T22:27:51.294Z,70.00
2022-08-17T22:30:27.610Z,70.20
2022-08-17T22:32:56.195Z,70.30
2022-08-17T22:35:40.982Z,70.50
2022-08-17T22:38:31.225Z,71.10
2022-08-17T22:41:23.173Z,71.40
2022-08-17T22:43:52.948Z,71.40
2022-08-17T22:46:23.958Z,71.40
2022-08-17T22:48:56.866Z,71.60
2022-08-17T22:51:30.188Z,71.60
2022-08-17T22:54:19.540Z,71.70
2022-08-17T22:57:18.655Z,71.60
2022-08-17T22:59:50.612Z,71.80
2022-08-17T23:02:26.082Z,71.70
2022-08-17T23:04:59.337Z,71.90
2022-08-17T23:07:29.056Z,72.80
2022-08-17T23:09:57.387Z,73.10
2022-08-17T23:12:28.244Z,73.00
2022-08-17T23:15:01.936Z,73.40
2022-08-17T23:17:33.969Z,73.70
2022-08-17T23:20:08.463Z,74.80
2022-08-17T23:22:52.397Z,73.70
2022-08-17T23:25:27.324Z,73.60
2022-08-17T23:27:55.834Z,73.60
2022-08-17T23:30:25.504Z,73.60
2022-08-17T23:32:54.487Z,73.50
2022-08-17T23:35:40.425Z,73.30
2022-08-17T23:38:11.972Z,73.30
2022-08-17T23:40:41.350Z,73.30
2022-08-17T23:43:24.471Z,73.30
2022-08-17T23:45:55.235Z,73.20
2022-08-17T23:48:35.210Z,73.20
2022-08-17T23:51:09.727Z,73.30
2022-08-17T23:53:44.120Z,73.20
2022-08-17T23:56:12.811Z,73.10
2022-08-17T23:58:43.776Z,73.10
